Detall de PIREP

Printer-friendly versionPDF version

[2011/03/05 16:09:00]
Flight IATA:CT1001
Pilot Number:026
Company ICAO:CAT
Aircraft Type:F50/A
PAX:50
Aircraft Registration:PAOB
Departing Airport: LFKJ
Destination Airport: LICJ
Alternate Airport:LMML
Online: VATSIM
Route:CORSI UM858 RAMEN UM732 CAR UM871 KAPIL
Flight Level:F260
No Slew and time accel
No pause
Crash detect
Detect pilot in Cockpit between each 30 and 45 minutes
16:09 Zero fuel Weight: 37082 Lbs, Fuel Weight: 4126 Lbs
16:09 VATSIM:LFKJ 051600Z 31012KT 280V340 9999 FEW046 14/04 Q1015 NOSIG
16:09 VATSIM:LICJ 051550Z 30014KT 9999 SCT018TCU SCT025 14/10 Q1016
16:09 VOICE CATALONIAN / MEDITERRANEAN ODYSSEY LEG 2
16:19 Parking Brakes off
16:26 Take-off
16:26 Take off Weight: 41106 Lbs
16:26 Wind: 326º @ 012 Knots Heading: 208º
16:26 POS N41º 54´ 57´´ E008º 47´ 50´´
16:26 Gear Up: 120 Knots
16:26 Flaps:2 at 120 Knots
16:26 Flaps:1 at 129 Knots
16:27 Flaps:0 at 127 Knots
16:41 Wind:332º@012 Knots Heading: 177º Ground Speed: 274 Knots Altitude 19304 ft
16:49 TOC
16:49 Fuel Weight: 3058 Lb
16:56 Wind:317º@028 Knots Heading: 180º Ground Speed: 249 Knots Altitude 29937 ft
17:11 Wind:309º@071 Knots Heading: 103º Ground Speed: 323 Knots Altitude 27053 ft
17:26 Wind:310º@033 Knots Heading: 107º Ground Speed: 281 Knots Altitude 27073 ft
17:32 TOD
17:32 Fuel Weight: 2126 Lb
17:41 Wind:310º@034 Knots Heading: 101º Ground Speed: 286 Knots Altitude 11128 ft
17:55 Gear Down: 217 Knots
17:56 Wind:299º@014 Knots Heading: 249º Ground Speed: 199 Knots Altitude 1627 ft
17:56 Flaps:1 at 207 Knots
17:56 Flaps:2 at 191 Knots
17:57 TouchDown:Rate -445 ft/min Speed: 138 Knots
17:57 VATSIM:LICJ 051720Z 31013KT 9999 FEW015TCU SCT025 13/09 Q1016
17:57 Land
17:57 Wind:299º@014 Knots
17:57 Heading: 250º
17:57 Flight Duration: 01:31
17:57 Landing Weight: 38879 Lbs
17:57 POS N38º 10´ 48´´ E013º 06´ 14´´
18:02 Parking brakes on
18:02 Block to Block Duration: 01:43
18:02 Final Fuel: 1754 Lbls
18:02 Spent Fuel: 2372 Lbls
18:02 Flight Length: 400 NM
18:02 TOD Land Length: 98 NM

Exportar CSV

Powered by Drupal - Modified by Danger4k